Dobrodošli na spletni strani vremenske postaje Senovo. Vse informacije so informativnega značaja, saj vremenska postaja ni del državne mreže meteoroloških postaj. OBVESTILO: Letni količini padavin navedeni na spletni strani je potrebno prišteti 98,1 mm, zaradi izgube podatkov.


Posebna pozornost v zvezi z vremenskimi dogajanji ni potrebna.    Posebna pozornost v zvezi z vremenskimi dogajanji ni potrebna.

Pogled proti Armezu več informacij Pogled proti Armezu


Lisca več informacij Lisca


Radar strel več informacij blitzortung!


Radar padavin več informacij rain snow radar


Obiščite še:

Template documentation
and downloads

And another site



Weather Underground, zgodovina - Tekstovno

Dnevni povzetek za Avgust 10, 2017 Enote:  Angleško    Metrično   Obe
« Predhodni Dan
Naslednji Dan »
Dnevni Tedenski Mesečni Letni Po meri
  Višja: Nižja: Povprečje:
Temperatura: 93.2 °F 65.5 °F 76.1 °F
Točka rosišča: 75.7 °F 60.3 °F 66.7 °F
Vlažnost: 96 % 40 % 77 %
Hitrost vetra: 10.8 mph 0 mph 1.6 mph
Sunki vetra: 28.4 mph - -
Veter:- - South
Zračni tlak: 30 in 29.9 in -
Padavine: 0.79 in    
Historical Graphs
 
 
Tabelarni podarki za Avgust 10, 2017
Čas Temperatura Točka rosišča Zračni tlak Veter Hitrost vetra Sunki vetra Vlažnost Intenziteta padavin (urna)
00:03 70.5 °F 67.5 °F 30 in Calm     90 % 0 in
00:08 70.3 °F 67.3 °F 30 in Calm     90 % 0 in
00:13 70.3 °F 67.3 °F 30 in Calm     90 % 0 in
00:18 70.2 °F 67.1 °F 30 in Calm     90 % 0 in
00:23 70.2 °F 67.1 °F 30 in Calm     90 % 0 in
00:28 70 °F 66.9 °F 30 in Calm     90 % 0 in
00:33 69.8 °F 66.7 °F 30 in Calm     90 % 0 in
00:38 69.6 °F 66.9 °F 30 in Calm     91 % 0 in
00:43 69.6 °F 66.9 °F 30 in Calm     91 % 0 in
00:48 69.4 °F 66.7 °F 30 in Calm     91 % 0 in
00:54 69.3 °F 66.6 °F 30 in Calm     91 % 0 in
00:59 69.1 °F 66.4 °F 30 in Calm     91 % 0 in
01:04 69.1 °F 66.4 °F 30 in Calm     91 % 0 in
01:09 68.9 °F 66.2 °F 30 in Calm     91 % 0 in
01:14 68.9 °F 66.2 °F 30 in Calm     91 % 0 in
01:19 68.7 °F 66.4 °F 30 in Calm     92 % 0 in
01:24 68.7 °F 66.4 °F 30 in Calm     92 % 0 in
01:29 68.5 °F 66 °F 30 in Calm     92 % 0 in
01:34 68.5 °F 66 °F 30 in North 0.1 mph   92 % 0 in
01:39 68.5 °F 66 °F 30 in North 0.1 mph   92 % 0 in
01:44 68.4 °F 65.8 °F 30 in Calm     92 % 0 in
01:49 68.2 °F 65.8 °F 30 in Calm     92 % 0 in
01:54 68.2 °F 65.8 °F 30 in Calm     92 % 0 in
01:59 68 °F 65.7 °F 30 in Calm     92 % 0 in
02:04 68 °F 65.7 °F 30 in Calm     92 % 0 in
02:09 68 °F 65.7 °F 30 in Calm     92 % 0 in
02:14 67.8 °F 65.5 °F 30 in Calm     92 % 0 in
02:19 67.8 °F 65.7 °F 30 in Calm     93 % 0 in
02:24 67.6 °F 65.5 °F 30 in Calm     93 % 0 in
02:29 67.6 °F 65.5 °F 30 in Calm     93 % 0 in
02:34 67.6 °F 65.5 °F 30 in Calm     93 % 0 in
02:39 67.5 °F 65.5 °F 30 in Calm     93 % 0 in
02:44 67.5 °F 65.5 °F 30 in North 0.2 mph   93 % 0 in
02:49 67.3 °F 65.5 °F 30 in West 0.3 mph 2.2 mph 94 % 0 in
02:54 67.3 °F 65.1 °F 30 in West 0.2 mph 2.2 mph 93 % 0 in
02:59 67.1 °F 64.9 °F 30 in Calm   0.9 mph 93 % 0 in
03:04 67.1 °F 64.9 °F 30 in Calm     93 % 0 in
03:09 66.9 °F 65.1 °F 30 in Calm     94 % 0 in
03:14 66.9 °F 65.1 °F 30 in Calm     94 % 0 in
03:19 66.9 °F 65.1 °F 30 in Calm     94 % 0 in
03:24 66.7 °F 64.9 °F 30 in Calm     94 % 0 in
03:29 66.7 °F 64.9 °F 30 in Calm     94 % 0 in
03:34 66.7 °F 64.9 °F 30 in Calm     94 % 0 in
03:39 66.6 °F 64.8 °F 30 in Calm     94 % 0 in
03:44 66.6 °F 64.8 °F 30 in Calm     94 % 0 in
03:49 66.4 °F 64.6 °F 30 in Calm     94 % 0 in
03:54 66.4 °F 64.6 °F 30 in Calm     94 % 0 in
03:59 66.2 °F 64.4 °F 30 in Calm     94 % 0 in
04:04 66.2 °F 64.4 °F 30 in Calm     94 % 0 in
04:09 66 °F 64.2 °F 30 in Calm     94 % 0 in
04:14 66 °F 64.2 °F 30 in Calm     94 % 0 in
04:19 65.8 °F 64 °F 30 in Calm     94 % 0 in
04:24 65.8 °F 64 °F 30 in Calm     94 % 0 in
04:29 65.7 °F 63.9 °F 30 in Calm     94 % 0 in
04:34 65.7 °F 63.9 °F 30 in Calm     94 % 0 in
04:39 65.7 °F 63.9 °F 30 in Calm     94 % 0 in
04:44 65.7 °F 63.9 °F 30 in Calm     94 % 0 in
04:49 65.5 °F 63.7 °F 30 in Calm     94 % 0 in
04:54 65.5 °F 63.7 °F 30 in Calm     94 % 0 in
04:59 65.5 °F 63.7 °F 30 in Calm     94 % 0 in
05:04 65.7 °F 63.9 °F 30 in North 0.4 mph 2 mph 94 % 0 in
05:09 65.7 °F 63.9 °F 30 in North 0.5 mph 2 mph 94 % 0 in
05:14 65.7 °F 64.2 °F 30 in SE 0.1 mph 1.1 mph 95 % 0 in
05:19 65.7 °F 64.2 °F 30 in Calm     95 % 0 in
05:22 65.7 °F 64.2 °F 30 in WNW 0.4 mph 2.7 mph 95 % 0 in
05:24 65.7 °F 64.2 °F 30 in WNW 0.4 mph 2.7 mph 95 % 0 in
05:29 65.8 °F 64.4 °F 30 in WNW 0.4 mph 2.7 mph 95 % 0 in
05:34 65.8 °F 64.4 °F 30 in Calm     95 % 0 in
05:39 65.8 °F 64.4 °F 30 in Calm   2.5 mph 95 % 0 in
05:44 65.8 °F 64.4 °F 30 in WSW 1.8 mph 3.4 mph 95 % 0.01 in
05:49 66 °F 64.6 °F 30 in WSW 2.6 mph 3.4 mph 95 % 0.02 in
05:55 66 °F 64.6 °F 30 in West 2.2 mph 3.1 mph 95 % 0.04 in
06:00 66.2 °F 64.8 °F 30 in NW 1.1 mph 2.5 mph 95 % 0.05 in
06:05 66.2 °F 64.8 °F 30 in NE 0.4 mph 1.3 mph 95 % 0.05 in
06:10 66.2 °F 64.8 °F 30 in NNW 1.1 mph 4.3 mph 95 % 0.06 in
06:15 66.4 °F 64.9 °F 30 in NNW 2.5 mph 4.3 mph 95 % 0.06 in
06:20 66.4 °F 64.9 °F 29.9 in NNW 1.7 mph 4.3 mph 95 % 0.06 in
06:25 66.6 °F 65.1 °F 29.9 in North 0.3 mph 2.2 mph 95 % 0.06 in
06:30 66.7 °F 65.3 °F 29.9 in West 0.6 mph 3.4 mph 95 % 0.06 in
06:35 66.9 °F 65.7 °F 29.9 in WSW 1.9 mph 3.4 mph 96 % 0.06 in
06:40 67.3 °F 66 °F 29.9 in WSW 1.6 mph 3.1 mph 96 % 0.06 in
06:45 67.5 °F 66.4 °F 29.9 in West 1.5 mph 4 mph 96 % 0.05 in
06:50 67.8 °F 66.6 °F 30 in West 1.6 mph 4 mph 96 % 0.04 in
06:55 68 °F 66.7 °F 30 in NW 1.5 mph 4.3 mph 96 % 0.03 in
07:00 68.4 °F 67.3 °F 30 in NW 1.5 mph 4.3 mph 96 % 0.01 in
07:05 68.5 °F 67.5 °F 30 in NW 0.8 mph 3.1 mph 96 % 0.01 in
07:10 68.7 °F 67.5 °F 30 in WNW 0.3 mph 2.5 mph 96 % 0 in
07:15 68.9 °F 67.6 °F 30 in Calm     96 % 0 in
07:20 69.1 °F 67.8 °F 30 in NNW 0.1 mph 1.6 mph 96 % 0 in
07:25 69.3 °F 68.2 °F 30 in WNW 0.8 mph 2.9 mph 96 % 0 in
07:30 69.4 °F 68.2 °F 30 in NW 1 mph 2.9 mph 96 % 0 in
07:35 69.4 °F 68.2 °F 30 in NE 0.5 mph 2.7 mph 96 % 0 in
07:40 69.6 °F 68.4 °F 30 in WSW 0.1 mph 2.7 mph 96 % 0 in
07:45 69.8 °F 68.5 °F 30 in WSW 1.4 mph 3.6 mph 96 % 0 in
07:50 70 °F 68.7 °F 30 in WSW 1.5 mph 3.6 mph 96 % 0 in
07:55 70 °F 68.7 °F 30 in NNW 0.2 mph 2.7 mph 96 % 0 in
08:00 70.2 °F 69.1 °F 30 in NNW 0.2 mph 2.7 mph 96 % 0 in
08:05 70.3 °F 69.1 °F 30 in NW 0.3 mph 2.7 mph 96 % 0 in
08:10 70.5 °F 69.3 °F 30 in WNW 0.1 mph 2 mph 96 % 0 in
08:15 70.5 °F 69.1 °F 30 in NNW 0.2 mph 1.6 mph 95 % 0 in
08:20 70.7 °F 69.3 °F 29.9 in WSW 0.5 mph 2.9 mph 95 % 0 in
08:25 70.7 °F 69.3 °F 29.9 in South 1.1 mph 4.9 mph 95 % 0 in
08:30 70.9 °F 69.4 °F 29.9 in South 1.6 mph 4.9 mph 95 % 0 in
08:35 71.2 °F 69.6 °F 30 in South 2 mph 6.3 mph 95 % 0 in
08:40 71.6 °F 70.2 °F 30 in South 2.6 mph 6.3 mph 95 % 0 in
08:45 72.3 °F 70.9 °F 30 in South 2.6 mph 5.8 mph 95 % 0 in
08:50 73 °F 71.4 °F 30 in East 2 mph 5.8 mph 95 % 0 in
08:55 73.6 °F 71.8 °F 30 in NNE 2 mph 4.3 mph 94 % 0 in
09:00 74.1 °F 72 °F 30 in North 1.6 mph 3.8 mph 93 % 0 in
09:05 74.5 °F 72.3 °F 30 in South 0.9 mph 4.7 mph 93 % 0 in
09:10 74.7 °F 72.5 °F 30 in SSW 1.6 mph 4.7 mph 93 % 0 in
09:15 74.7 °F 72.1 °F 30 in South 2 mph 5.6 mph 92 % 0 in
09:20 74.7 °F 72.1 °F 30 in SE 1.4 mph 5.6 mph 92 % 0 in
09:25 74.3 °F 71.8 °F 30 in NE 2.5 mph 6.5 mph 92 % 0 in
09:30 74.3 °F 71.8 °F 30 in ENE 3.2 mph 6.5 mph 92 % 0 in
09:35 74.5 °F 71.8 °F 30 in East 2.8 mph 5.4 mph 91 % 0 in
09:40 74.5 °F 71.8 °F 30 in NNE 1.8 mph 4.9 mph 91 % 0 in
09:45 74.7 °F 72 °F 30 in WNW 1.7 mph 5.4 mph 91 % 0 in
09:50 74.8 °F 72 °F 30 in SSW 3.7 mph 7.4 mph 91 % 0 in
09:55 75 °F 72 °F 30 in SSW 4.5 mph 7.4 mph 90 % 0 in
10:00 75.4 °F 72.1 °F 30 in SSW 2.9 mph 6.5 mph 90 % 0 in
10:05 75.6 °F 72.1 °F 30 in SE 0.9 mph 3.6 mph 89 % 0 in
10:10 75.7 °F 72.3 °F 30 in NW 0.1 mph 2 mph 89 % 0 in
10:15 76.5 °F 73 °F 30 in NW 0.3 mph 2.7 mph 89 % 0 in
10:20 77.4 °F 73.6 °F 30 in North 0.9 mph 3.1 mph 88 % 0 in
10:25 78.3 °F 74.1 °F 30 in East 0.8 mph 3.1 mph 87 % 0 in
10:30 78.8 °F 74.7 °F 30 in SSE 1.3 mph 3.4 mph 87 % 0 in
10:35 80.2 °F 75.4 °F 30 in South 2.3 mph 3.6 mph 85 % 0 in
10:40 80.8 °F 74.8 °F 30 in South 1.6 mph 3.8 mph 82 % 0 in
10:45 81.7 °F 74.1 °F 30 in SE 1.1 mph 3.8 mph 78 % 0 in
10:50 82 °F 74.1 °F 30 in SSE 1 mph 2.9 mph 77 % 0 in
10:55 82.6 °F 73.4 °F 30 in SSE 0.7 mph 2.7 mph 74 % 0 in
11:00 82.9 °F 73.8 °F 30 in ENE 0.8 mph 3.8 mph 74 % 0 in
11:05 83.7 °F 74.5 °F 30 in SE 1.4 mph 4.7 mph 74 % 0 in
11:10 84.4 °F 74.8 °F 30 in SSE 1.9 mph 4.7 mph 73 % 0 in
11:15 85.1 °F 75 °F 30 in SE 2 mph 4.3 mph 72 % 0 in
11:20 85.8 °F 75.7 °F 30 in SSE 2.3 mph 4.3 mph 72 % 0 in
11:25 86.4 °F 75 °F 30 in South 3 mph 5.4 mph 69 % 0 in
11:30 86.7 °F 74.5 °F 30 in SSE 2.9 mph 5.6 mph 67 % 0 in
11:35 87.1 °F 74.3 °F 30 in SSE 2.7 mph 5.6 mph 66 % 0 in
11:40 87.3 °F 73.6 °F 30 in SSE 3.2 mph 6.5 mph 64 % 0 in
11:45 87.6 °F 72 °F 30 in SE 3.5 mph 6.5 mph 60 % 0 in
11:50 87.6 °F 70 °F 30 in ESE 2.3 mph 6.3 mph 56 % 0 in
11:55 87.4 °F 68.7 °F 30 in East 1.2 mph 3.4 mph 54 % 0 in
12:00 87.6 °F 69.4 °F 30 in East 1.5 mph 5.6 mph 55 % 0 in
12:05 88.2 °F 68.9 °F 29.9 in East 1.9 mph 5.6 mph 53 % 0 in
12:10 88.9 °F 66 °F 29.9 in East 2.5 mph 5.6 mph 47 % 0 in
12:15 89.1 °F 66.7 °F 29.9 in East 2.8 mph 6.9 mph 48 % 0 in
12:20 89.6 °F 67.3 °F 29.9 in East 2.8 mph 6.9 mph 48 % 0 in
12:25 89.8 °F 65.7 °F 29.9 in East 2.9 mph 7.8 mph 45 % 0 in
12:30 89.6 °F 65.5 °F 29.9 in ENE 4.1 mph 7.8 mph 45 % 0 in
12:35 89.6 °F 65.5 °F 29.9 in ENE 3.9 mph 7.4 mph 45 % 0 in
12:40 89.6 °F 65.5 °F 29.9 in East 2.2 mph 5.8 mph 45 % 0 in
12:45 89.6 °F 65.5 °F 29.9 in East 1.9 mph 6 mph 45 % 0 in
12:50 90.3 °F 65.5 °F 29.9 in East 2.3 mph 6 mph 44 % 0 in
12:55 90.7 °F 66.4 °F 29.9 in ESE 2.4 mph 5.8 mph 45 % 0 in
13:00 90.7 °F 66.4 °F 29.9 in East 1.6 mph 4 mph 45 % 0 in
13:05 90.3 °F 65.5 °F 30 in WNW 1.1 mph 4 mph 44 % 0 in
13:10 90 °F 65.8 °F 30 in West 1.7 mph 3.8 mph 45 % 0 in
13:15 89.8 °F 66.2 °F 30 in West 1.5 mph 3.8 mph 46 % 0 in
13:20 89.4 °F 67.1 °F 30 in WSW 1.4 mph 3.6 mph 48 % 0 in
13:25 89.1 °F 66.7 °F 30 in WSW 2.4 mph 3.6 mph 48 % 0 in
13:30 88.7 °F 67.1 °F 30 in West 1.7 mph 3.6 mph 49 % 0 in
13:35 88.3 °F 68.5 °F 30 in NNW 0.9 mph 2.7 mph 52 % 0 in
13:40 88.3 °F 67.3 °F 30 in WSW 1.4 mph 3.1 mph 50 % 0 in
13:45 89.2 °F 66.4 °F 30 in SW 1.7 mph 3.1 mph 47 % 0 in
13:50 90 °F 66.4 °F 30 in SW 2.1 mph 3.6 mph 46 % 0 in
13:55 91.2 °F 66.9 °F 30 in SSW 3.3 mph 6 mph 45 % 0 in
14:00 91.6 °F 66.6 °F 30 in SSW 3.4 mph 6 mph 44 % 0 in
14:05 91.8 °F 64.8 °F 30 in West 2.2 mph 5.4 mph 41 % 0 in
14:10 92.3 °F 65.1 °F 30 in SSE 1.6 mph 3.8 mph 41 % 0 in
14:15 92.3 °F 64.6 °F 30 in SE 1.2 mph 3.8 mph 40 % 0 in
14:20 92.8 °F 65.7 °F 30 in ESE 1 mph 3.4 mph 41 % 0 in
14:25 93.2 °F 66 °F 30 in ESE 2 mph 5.6 mph 41 % 0 in
14:30 93.2 °F 66 °F 30 in East 2.2 mph 6.3 mph 41 % 0 in
14:35 92.8 °F 67.1 °F 29.9 in NNE 2.8 mph 7.4 mph 43 % 0 in
14:40 92.8 °F 67.1 °F 29.9 in North 3.3 mph 7.4 mph 43 % 0 in
14:45 92.8 °F 67.1 °F 29.9 in North 2.8 mph 6.5 mph 43 % 0 in
14:50 93 °F 67.8 °F 29.9 in ENE 2.7 mph 5.4 mph 44 % 0 in
14:55 92.8 °F 67.1 °F 29.9 in NE 3.3 mph 8.1 mph 43 % 0 in
15:00 92.8 °F 67.6 °F 29.9 in NE 3.5 mph 8.1 mph 44 % 0 in
15:05 92.8 °F 67.1 °F 29.9 in NE 3.4 mph 6.5 mph 43 % 0 in
15:10 92.7 °F 66.2 °F 29.9 in NE 3.4 mph 6.5 mph 42 % 0 in
15:15 92.7 °F 66.2 °F 29.9 in NNE 3.3 mph 7.4 mph 42 % 0 in
15:20 92.7 °F 65.5 °F 29.9 in NE 3.5 mph 7.4 mph 41 % 0 in
15:25 92.8 °F 65.7 °F 29.9 in NE 2.9 mph 5.6 mph 41 % 0 in
15:30 93 °F 65.8 °F 29.9 in NE 2.7 mph 7.8 mph 41 % 0 in
15:35 93.2 °F 66 °F 29.9 in ENE 3.5 mph 8.7 mph 41 % 0 in
15:40 93.2 °F 65.3 °F 29.9 in East 4.3 mph 8.7 mph 40 % 0 in
15:45 93.2 °F 66 °F 29.9 in East 4.6 mph 8.1 mph 41 % 0 in
15:50 93 °F 65.1 °F 29.9 in ENE 4.5 mph 8.5 mph 40 % 0 in
15:55 93.2 °F 65.3 °F 29.9 in ENE 3.8 mph 8.5 mph 40 % 0 in
16:00 93.2 °F 65.3 °F 29.9 in East 3.7 mph 7.8 mph 40 % 0 in
16:05 92.7 °F 64.8 °F 29.9 in East 4.5 mph 10.5 mph 40 % 0 in
16:10 91.9 °F 64.2 °F 29.9 in ENE 4.8 mph 10.5 mph 40 % 0 in
16:16 91.6 °F 64.6 °F 29.9 in East 4.1 mph 8.7 mph 41 % 0 in
16:21 91.4 °F 64.4 °F 29.9 in East 3.2 mph 6.3 mph 41 % 0 in
16:26 91 °F 64.8 °F 29.9 in East 2.8 mph 6.3 mph 42 % 0 in
16:31 90.7 °F 64.4 °F 29.9 in East 2.6 mph 5.6 mph 42 % 0 in
16:36 90.3 °F 64.8 °F 29.9 in ENE 2.5 mph 5.8 mph 43 % 0 in
16:41 89.8 °F 63.7 °F 29.9 in NE 1.9 mph 5.8 mph 42 % 0 in
16:45 89.4 °F 64 °F 29.9 in NE 2 mph 2 mph 43 % 0 in
16:46 89.4 °F 64.6 °F 29.9 in NE 1.5 mph 1.5 mph 44 % 0 in
16:56 89.2 °F 64.6 °F 29.9 in NE 1.2 mph 1.4 mph 44 % 0 in
17:01 89.2 °F 65.8 °F 29.9 in East 1.3 mph 4.9 mph 46 % 0 in
17:06 89.4 °F 67.1 °F 29.9 in East 2 mph 4.3 mph 48 % 0 in
17:11 89.2 °F 66.9 °F 29.9 in ENE 2.9 mph 5.6 mph 48 % 0 in
17:16 89.2 °F 67.6 °F 29.9 in ENE 2.6 mph 6.7 mph 49 % 0 in
17:17 89.2 °F 67.6 °F 29.9 in ENE 2.7 mph 6.7 mph 49 % 0 in
17:22 89.1 °F 68 °F 29.9 in ESE 2 mph 6.7 mph 50 % 0 in
17:27 88.9 °F 68.4 °F 29.9 in ESE 1.4 mph 4.3 mph 51 % 0 in
17:28 88.9 °F 68.4 °F 29.9 in ESE 1.2 mph 4.3 mph 51 % 0 in
17:33 88.7 °F 68.7 °F 29.9 in ESE 1.1 mph 3.1 mph 52 % 0 in
17:38 88.5 °F 68.5 °F 29.9 in ENE 1.8 mph 3.8 mph 52 % 0 in
17:43 88.3 °F 69.1 °F 29.9 in NE 1.6 mph 3.8 mph 53 % 0 in
17:48 88.2 °F 68.4 °F 29.9 in NNW 1 mph 3.1 mph 52 % 0 in
17:53 88 °F 69.3 °F 29.9 in WSW 1 mph 3.1 mph 54 % 0 in
17:58 87.8 °F 69.6 °F 29.9 in South 1 mph 3.6 mph 55 % 0 in
18:03 87.6 °F 69.4 °F 29.9 in South 1.2 mph 3.6 mph 55 % 0 in
18:08 87.6 °F 68.9 °F 29.9 in SSE 0.6 mph 3.4 mph 54 % 0 in
18:13 87.6 °F 67.8 °F 29.9 in NE 0.6 mph 3.6 mph 52 % 0 in
18:18 87.6 °F 67.3 °F 29.9 in NE 1.8 mph 6.9 mph 51 % 0 in
18:23 87.4 °F 67.1 °F 29.9 in NE 2.5 mph 6.9 mph 51 % 0 in
18:28 87.3 °F 67.5 °F 29.9 in NE 2.3 mph 6 mph 52 % 0 in
18:33 86.9 °F 67.6 °F 29.9 in NNE 2 mph 6.5 mph 53 % 0 in
18:38 86.4 °F 67.8 °F 29.9 in SW 2.4 mph 6.5 mph 54 % 0 in
18:44 85.8 °F 69.3 °F 29.9 in SSW 2.9 mph 4.3 mph 58 % 0 in
18:49 85.3 °F 69.3 °F 29.9 in SW 4.8 mph 10.5 mph 59 % 0 in
18:54 84.7 °F 67.8 °F 29.9 in WSW 6 mph 12.5 mph 57 % 0 in
18:59 83.5 °F 63.3 °F 29.9 in SW 6.6 mph 13.4 mph 51 % 0 in
19:04 81.3 °F 60.3 °F 30 in SW 9.5 mph 28.4 mph 49 % 0 in
19:09 79.2 °F 61.5 °F 30 in WSW 10.8 mph 28.4 mph 55 % 0.03 in
19:14 76.8 °F 62.2 °F 30 in West 8 mph 19.9 mph 61 % 0.24 in
19:19 73 °F 63.9 °F 29.9 in West 6.1 mph 14.8 mph 73 % 0.5 in
19:24 71.6 °F 63.3 °F 29.9 in West 6.5 mph 13.2 mph 75 % 0.61 in
19:29 70.9 °F 63.3 °F 29.9 in SW 6.8 mph 17.7 mph 77 % 0.63 in
19:34 70.3 °F 64.2 °F 30 in South 6.6 mph 17.7 mph 81 % 0.65 in
19:39 70.2 °F 63.3 °F 30 in WNW 6.6 mph 17.7 mph 79 % 0.69 in
19:44 69.6 °F 63.1 °F 30 in NW 5.8 mph 13.2 mph 80 % 0.72 in
19:49 69.4 °F 63.7 °F 30 in SE 4.6 mph 9.8 mph 82 % 0.73 in
19:54 69.1 °F 63.3 °F 30 in SSW 3.3 mph 8.1 mph 82 % 0.73 in
19:59 68.9 °F 63.5 °F 30 in North 1.9 mph 4.7 mph 83 % 0.73 in
20:04 68.7 °F 63.7 °F 29.9 in ENE 1.8 mph 5.6 mph 84 % 0.73 in
20:09 68.7 °F 64 °F 29.9 in ESE 3.4 mph 8.1 mph 85 % 0.71 in
20:14 68.5 °F 64.2 °F 29.9 in SSE 3.7 mph 8.1 mph 86 % 0.39 in
20:19 68.4 °F 64 °F 29.9 in WSW 3.2 mph 5.6 mph 86 % 0.15 in
20:24 68.2 °F 64.2 °F 29.9 in West 2.8 mph 5.6 mph 87 % 0.11 in
20:29 68 °F 64.2 °F 29.9 in NNE 1.7 mph 4.3 mph 88 % 0.1 in
20:34 68 °F 64.2 °F 29.9 in NE 2.1 mph 6.5 mph 88 % 0.08 in
20:39 68 °F 64.2 °F 29.9 in NE 2.1 mph 6.5 mph 88 % 0.03 in
20:44 68 °F 64.6 °F 29.9 in SSW 2.1 mph 5.4 mph 89 % 0.01 in
20:49 68 °F 64.6 °F 29.9 in SW 3.4 mph 5.6 mph 89 % 0.01 in
20:54 68 °F 64.6 °F 29.9 in WSW 3.2 mph 5.6 mph 89 % 0 in
20:55 68 °F 64.6 °F 29.9 in WSW 2.9 mph 5.6 mph 89 % 0 in
21:00 68 °F 64.6 °F 29.9 in West 1.9 mph 3.8 mph 89 % 0 in
21:05 68 °F 64.9 °F 29.9 in SSW 2 mph 3.8 mph 90 % 0 in
21:10 68 °F 64.6 °F 29.9 in SSE 1.8 mph 3.6 mph 89 % 0 in
21:15 68 °F 64.9 °F 29.9 in SSW 1.5 mph 4.9 mph 90 % 0 in
21:20 67.8 °F 64.8 °F 29.9 in WSW 1.1 mph 4.9 mph 90 % 0 in
21:25 67.8 °F 65.1 °F 29.9 in West 1.4 mph 3.6 mph 91 % 0 in
21:30 67.8 °F 65.1 °F 29.9 in West 1.5 mph 3.6 mph 91 % 0 in
21:35 67.8 °F 65.1 °F 29.9 in WSW 0.5 mph 2.5 mph 91 % 0 in
21:40 67.6 °F 64.9 °F 29.9 in SW 0.2 mph 2.5 mph 91 % 0 in
21:41 67.6 °F 64.9 °F 29.9 in SW 0.2 mph 2.5 mph 91 % 0 in
21:46 67.6 °F 64.9 °F 29.9 in Calm     91 % 0 in
21:51 67.6 °F 64.9 °F 29.9 in West 0.7 mph 3.6 mph 91 % 0 in
21:56 67.6 °F 65.1 °F 29.9 in West 1 mph 3.6 mph 92 % 0 in
22:01 67.6 °F 65.1 °F 29.9 in West 0.3 mph 2.7 mph 92 % 0 in
22:06 67.5 °F 65.1 °F 29.9 in WNW 0.3 mph 3.8 mph 92 % 0 in
22:11 67.5 °F 65.1 °F 29.9 in West 1 mph 3.8 mph 92 % 0 in
22:16 67.5 °F 65.1 °F 29.9 in West 0.8 mph 2.5 mph 92 % 0 in
22:21 67.5 °F 65.1 °F 29.9 in Calm     92 % 0 in
22:26 67.5 °F 65.1 °F 29.9 in Calm     92 % 0 in
22:31 67.3 °F 64.9 °F 29.9 in Calm     92 % 0 in
22:36 67.3 °F 64.9 °F 29.9 in NW 0.2 mph 2.5 mph 92 % 0 in
22:41 67.3 °F 64.9 °F 29.9 in NW 0.7 mph 2.5 mph 92 % 0 in
22:46 67.3 °F 64.9 °F 29.9 in NW 0.4 mph 2.2 mph 92 % 0 in
22:51 67.1 °F 64.8 °F 29.9 in ESE 0.2 mph 2.7 mph 92 % 0 in
22:56 66.9 °F 64.6 °F 29.9 in East 0.5 mph 2.7 mph 92 % 0 in
23:01 66.9 °F 64.6 °F 29.9 in ENE 0.4 mph 2.7 mph 92 % 0 in
23:06 66.9 °F 64.6 °F 29.9 in SSW 0.8 mph 2 mph 92 % 0 in
23:11 66.9 °F 64.8 °F 29.9 in SSW 1.4 mph 2.9 mph 93 % 0 in
23:16 66.9 °F 64.6 °F 29.9 in SSE 1.3 mph 2.9 mph 92 % 0 in
23:21 66.9 °F 64.8 °F 29.9 in ESE 0.6 mph 2.7 mph 93 % 0 in
23:26 67.1 °F 64.9 °F 29.9 in SSW 0.5 mph 2.9 mph 93 % 0 in
23:31 67.1 °F 64.9 °F 29.9 in SW 1 mph 2.9 mph 93 % 0 in
23:36 67.1 °F 65.3 °F 29.9 in NE 1.6 mph 3.6 mph 94 % 0 in
23:41 67.1 °F 65.3 °F 29.9 in NE 1.2 mph 3.6 mph 94 % 0 in
23:46 67.1 °F 65.3 °F 29.9 in SW 0.6 mph 3.1 mph 94 % 0 in
23:51 67.1 °F 65.3 °F 29.9 in SW 1.6 mph 3.6 mph 94 % 0 in
23:56 67.1 °F 65.3 °F 29.9 in SSW 1.9 mph 3.6 mph 94 % 0 in
Vremenska postaja Senovo
Podatki zbrani iz Weather Underground - 3 mb

Script developed by  Jim McMurry - jmcmurry@mwt.net Adapted for the template by  Wim van der Kuil - Leuven-Template.eu

Vremenski podatki so objavljeni na:

WeatherCloud

Weather Underground

AWEKAS

HAMweather, WeatherForYou, PWS Weather

MapView

Geostik

Slovenia weather network

Oprema, ki se uporablja:

Vremenski program
Cumulus

Cumulus